SAZS

San Carlos De Bariloche Airport

San Carlos de Bariloche, Argentina
TAF SAZS 201700Z 2018/2118 30020G30KT 9999 SCT025 BKN040 TX15/2118Z TN08/2108Z TEMPO 2018/2021 6000 RADZ SCT015 OVC030 BECMG 2021/2023 29010KT 9999 NSW OVC020 BECMG 2102/2104 VRB03KT CAVOK
Issued Valid From Valid To
Apr-20 @ 17:00 UTC
(2 hours ago)
Apr-20 @ 18:00 UTC
(38 minutes ago)
Apr-21 @ 18:00 UTC
(in 23 hours)
Apr-20 @ 18:00 to Apr-20 @ 21:00
TAF SAZS 201700Z 2018/2118 30020G30KT 9999 SCT025 BKN040 TX15/2118Z TN08/2108Z
Wind Visibility Clouds
300° at 20 knots
 Gusting to 30 knots
10,000+ meters
  • Scattered at 2,500' AGL
  • Broken at 4,000' AGL
Temporary Apr-20 @ 18:00 to Apr-20 @ 21:00
TEMPO 2018/2021 6000 RADZ SCT015 OVC030
Visibility Clouds Conditions
6,003 meters
  • Scattered at 1,500' AGL
  • Overcast at 3,000' AGL
  • Rain
  • Drizzle
Becoming Apr-20 @ 21:00 to Apr-21 @ 02:00
BECMG 2021/2023 29010KT 9999 NSW OVC020
Wind Visibility Clouds Conditions
290° at 10 knots 10,000+ meters
  • Overcast at 2,000' AGL
Becoming Apr-21 @ 02:00 to Apr-21 @ 18:00
BECMG 2102/2104 VRB03KT CAVOK
Wind Visibility Clouds Conditions
Variable at 3 knots 10,000+ meters
  • No significant clouds
TAF SAZS 201700Z 2018/2118 30020G30KT 9999 SCT025 BKN040 TX15/2118Z TN08/2108Z TEMPO 2018/2021 6000 RADZ SCT015 OVC030 BECMG 2021/2023 29010KT 9999 NSW OVC020 BECMG 2102/2104 VRB03KT CAVOK
Issued Apr-20 @ 17:00 UTC
(2 hours ago)
Valid From Apr-20 @ 18:00 UTC
(38 minutes ago)
Valid To Apr-21 @ 18:00 UTC
(in 23 hours)
Apr-20 @ 18:00 - Apr-20 @ 21:00
Wind Visibility
300° at 20 knots
 Gusting to 30 knots
10,000+ meters
Clouds
  • Scattered at 2,500' AGL
  • Broken at 4,000' AGL
Temporary Apr-20 @ 18:00 - Apr-20 @ 21:00
Clouds
  • Scattered at 1,500' AGL
  • Overcast at 3,000' AGL
Conditions
  • Rain
  • Drizzle
Becoming Apr-20 @ 21:00 - Apr-21 @ 02:00
Wind Visibility
290° at 10 knots 10,000+ meters
Clouds
  • Overcast at 2,000' AGL
Conditions
Becoming Apr-21 @ 02:00 - Apr-21 @ 18:00
Wind Visibility
Variable at 3 knots 10,000+ meters
Clouds
  • No significant clouds
Conditions